sensor_id;sensor_type;location;lat;lon;timestamp;P1;durP1;ratioP1;P2;durP2;ratioP2
52530;SDS011;38441;52.894;6.040;2022-09-12T00:00:04;3.20;;;2.22;;
52530;SDS011;38441;52.894;6.040;2022-09-12T00:02:31;2.80;;;1.88;;
52530;SDS011;38441;52.894;6.040;2022-09-12T00:04:57;3.15;;;2.13;;
52530;SDS011;38441;52.894;6.040;2022-09-12T00:07:24;2.78;;;1.65;;
52530;SDS011;38441;52.894;6.040;2022-09-12T00:09:50;2.40;;;1.83;;
52530;SDS011;38441;52.894;6.040;2022-09-12T00:12:16;2.70;;;2.00;;
52530;SDS011;38441;52.894;6.040;2022-09-12T00:14:42;3.38;;;2.33;;
52530;SDS011;38441;52.894;6.040;2022-09-12T00:17:08;4.68;;;3.35;;
52530;SDS011;38441;52.894;6.040;2022-09-12T00:19:34;4.50;;;3.55;;
52530;SDS011;38441;52.894;6.040;2022-09-12T00:22:01;3.92;;;3.00;;
52530;SDS011;38441;52.894;6.040;2022-09-12T00:24:27;3.13;;;2.28;;
52530;SDS011;38441;52.894;6.040;2022-09-12T00:26:52;5.22;;;3.33;;
52530;SDS011;38441;52.894;6.040;2022-09-12T00:29:19;4.95;;;3.83;;
52530;SDS011;38441;52.894;6.040;2022-09-12T00:31:45;5.28;;;4.07;;
52530;SDS011;38441;52.894;6.040;2022-09-12T00:34:11;5.18;;;4.05;;
52530;SDS011;38441;52.894;6.040;2022-09-12T00:36:38;3.15;;;2.60;;
52530;SDS011;38441;52.894;6.040;2022-09-12T00:39:04;3.80;;;2.92;;
52530;SDS011;38441;52.894;6.040;2022-09-12T00:41:35;3.30;;;2.38;;
52530;SDS011;38441;52.894;6.040;2022-09-12T00:47:10;2.65;;;2.03;;
52530;SDS011;38441;52.894;6.040;2022-09-12T00:50:03;3.15;;;2.22;;
52530;SDS011;38441;52.894;6.040;2022-09-12T00:55:16;5.32;;;2.85;;
52530;SDS011;38441;52.894;6.040;2022-09-12T00:58:23;4.00;;;3.42;;
52530;SDS011;38441;52.894;6.040;2022-09-12T01:00:53;5.00;;;3.38;;
52530;SDS011;38441;52.894;6.040;2022-09-12T01:06:17;2.95;;;2.15;;
52530;SDS011;38441;52.894;6.040;2022-09-12T01:08:47;3.20;;;1.80;;
52530;SDS011;38441;52.894;6.040;2022-09-12T01:11:13;2.95;;;2.38;;
52530;SDS011;38441;52.894;6.040;2022-09-12T01:13:41;4.32;;;2.22;;
52530;SDS011;38441;52.894;6.040;2022-09-12T01:16:09;2.97;;;1.85;;
52530;SDS011;38441;52.894;6.040;2022-09-12T01:19:14;3.20;;;1.80;;
52530;SDS011;38441;52.894;6.040;2022-09-12T01:30:00;6.28;;;4.97;;
52530;SDS011;38441;52.894;6.040;2022-09-12T01:32:37;6.22;;;4.40;;
52530;SDS011;38441;52.894;6.040;2022-09-12T01:43:35;5.47;;;4.25;;
52530;SDS011;38441;52.894;6.040;2022-09-12T01:46:22;5.70;;;5.00;;
52530;SDS011;38441;52.894;6.040;2022-09-12T01:49:00;7.05;;;5.35;;
52530;SDS011;38441;52.894;6.040;2022-09-12T01:54:42;7.32;;;6.25;;
52530;SDS011;38441;52.894;6.040;2022-09-12T01:57:19;7.78;;;6.18;;
52530;SDS011;38441;52.894;6.040;2022-09-12T01:59:53;5.80;;;4.65;;
52530;SDS011;38441;52.894;6.040;2022-09-12T02:05:10;4.70;;;3.50;;
52530;SDS011;38441;52.894;6.040;2022-09-12T02:07:44;5.22;;;3.97;;
52530;SDS011;38441;52.894;6.040;2022-09-12T02:10:15;7.72;;;6.10;;
52530;SDS011;38441;52.894;6.040;2022-09-12T02:13:00;8.75;;;7.07;;
52530;SDS011;38441;52.894;6.040;2022-09-12T02:15:39;9.43;;;7.00;;
52530;SDS011;38441;52.894;6.040;2022-09-12T02:18:10;8.43;;;7.43;;
52530;SDS011;38441;52.894;6.040;2022-09-12T02:20:40;11.80;;;8.07;;
52530;SDS011;38441;52.894;6.040;2022-09-12T02:23:08;8.57;;;7.68;;
52530;SDS011;38441;52.894;6.040;2022-09-12T02:25:38;11.63;;;9.70;;
52530;SDS011;38441;52.894;6.040;2022-09-12T02:28:16;13.98;;;11.10;;
52530;SDS011;38441;52.894;6.040;2022-09-12T02:30:58;13.20;;;11.13;;
52530;SDS011;38441;52.894;6.040;2022-09-12T02:33:43;14.40;;;11.52;;
52530;SDS011;38441;52.894;6.040;2022-09-12T02:39:24;13.60;;;12.15;;
52530;SDS011;38441;52.894;6.040;2022-09-12T02:41:50;15.95;;;12.55;;
52530;SDS011;38441;52.894;6.040;2022-09-12T02:44:18;14.68;;;12.18;;
52530;SDS011;38441;52.894;6.040;2022-09-12T02:46:48;15.52;;;12.75;;
52530;SDS011;38441;52.894;6.040;2022-09-12T02:49:17;16.20;;;13.95;;
52530;SDS011;38441;52.894;6.040;2022-09-12T02:51:43;15.75;;;13.55;;
52530;SDS011;38441;52.894;6.040;2022-09-12T02:54:10;14.15;;;12.63;;
52530;SDS011;38441;52.894;6.040;2022-09-12T02:56:42;13.93;;;12.43;;
52530;SDS011;38441;52.894;6.040;2022-09-12T02:59:10;15.00;;;13.43;;
52530;SDS011;38441;52.894;6.040;2022-09-12T03:07:12;15.07;;;12.40;;
52530;SDS011;38441;52.894;6.040;2022-09-12T03:09:44;14.80;;;13.02;;
52530;SDS011;38441;52.894;6.040;2022-09-12T03:12:22;14.55;;;12.88;;
52530;SDS011;38441;52.894;6.040;2022-09-12T03:20:23;13.13;;;11.15;;
52530;SDS011;38441;52.894;6.040;2022-09-12T03:23:08;14.63;;;12.55;;
52530;SDS011;38441;52.894;6.040;2022-09-12T03:25:44;15.27;;;12.75;;
52530;SDS011;38441;52.894;6.040;2022-09-12T03:28:16;15.63;;;13.95;;
52530;SDS011;38441;52.894;6.040;2022-09-12T03:30:45;16.25;;;14.48;;
52530;SDS011;38441;52.894;6.040;2022-09-12T03:33:13;15.35;;;13.73;;
52530;SDS011;38441;52.894;6.040;2022-09-12T03:35:40;16.70;;;14.70;;
52530;SDS011;38441;52.894;6.040;2022-09-12T03:38:07;17.70;;;14.90;;
52530;SDS011;38441;52.894;6.040;2022-09-12T03:40:33;17.25;;;14.32;;
52530;SDS011;38441;52.894;6.040;2022-09-12T03:43:00;19.17;;;15.40;;
52530;SDS011;38441;52.894;6.040;2022-09-12T03:45:26;17.50;;;14.82;;
52530;SDS011;38441;52.894;6.040;2022-09-12T03:47:52;17.15;;;15.15;;
52530;SDS011;38441;52.894;6.040;2022-09-12T03:50:18;19.00;;;15.45;;
52530;SDS011;38441;52.894;6.040;2022-09-12T03:52:44;18.00;;;15.07;;
52530;SDS011;38441;52.894;6.040;2022-09-12T03:55:10;19.70;;;15.80;;
52530;SDS011;38441;52.894;6.040;2022-09-12T03:57:36;19.52;;;16.75;;
52530;SDS011;38441;52.894;6.040;2022-09-12T04:00:06;19.67;;;16.27;;
52530;SDS011;38441;52.894;6.040;2022-09-12T04:02:33;18.58;;;16.55;;
52530;SDS011;38441;52.894;6.040;2022-09-12T04:04:59;21.92;;;15.82;;
52530;SDS011;38441;52.894;6.040;2022-09-12T04:07:25;20.95;;;16.50;;
52530;SDS011;38441;52.894;6.040;2022-09-12T04:09:51;18.67;;;16.08;;
52530;SDS011;38441;52.894;6.040;2022-09-12T04:12:17;20.25;;;16.70;;
52530;SDS011;38441;52.894;6.040;2022-09-12T04:14:44;19.50;;;16.25;;
52530;SDS011;38441;52.894;6.040;2022-09-12T04:17:10;20.58;;;16.55;;
52530;SDS011;38441;52.894;6.040;2022-09-12T04:19:36;20.40;;;16.90;;
52530;SDS011;38441;52.894;6.040;2022-09-12T04:22:02;21.13;;;18.00;;
52530;SDS011;38441;52.894;6.040;2022-09-12T04:24:28;20.35;;;17.45;;
52530;SDS011;38441;52.894;6.040;2022-09-12T04:26:54;24.35;;;18.42;;
52530;SDS011;38441;52.894;6.040;2022-09-12T04:29:21;21.10;;;16.95;;
52530;SDS011;38441;52.894;6.040;2022-09-12T04:31:47;21.92;;;18.58;;
52530;SDS011;38441;52.894;6.040;2022-09-12T04:34:13;24.88;;;19.08;;
52530;SDS011;38441;52.894;6.040;2022-09-12T04:36:39;24.45;;;19.50;;
52530;SDS011;38441;52.894;6.040;2022-09-12T04:39:05;25.85;;;19.30;;
52530;SDS011;38441;52.894;6.040;2022-09-12T04:41:35;22.27;;;18.60;;
52530;SDS011;38441;52.894;6.040;2022-09-12T04:44:04;22.60;;;19.23;;
52530;SDS011;38441;52.894;6.040;2022-09-12T04:46:32;24.88;;;19.35;;
52530;SDS011;38441;52.894;6.040;2022-09-12T04:49:00;22.98;;;20.00;;
52530;SDS011;38441;52.894;6.040;2022-09-12T04:51:27;23.33;;;20.08;;
52530;SDS011;38441;52.894;6.040;2022-09-12T04:53:56;25.35;;;20.67;;
52530;SDS011;38441;52.894;6.040;2022-09-12T04:56:24;24.65;;;19.38;;
52530;SDS011;38441;52.894;6.040;2022-09-12T04:58:50;25.25;;;19.73;;
52530;SDS011;38441;52.894;6.040;2022-09-12T05:01:19;24.42;;;19.73;;
52530;SDS011;38441;52.894;6.040;2022-09-12T05:03:47;23.85;;;19.02;;
52530;SDS011;38441;52.894;6.040;2022-09-12T05:06:15;24.77;;;19.63;;
52530;SDS011;38441;52.894;6.040;2022-09-12T05:08:43;24.95;;;20.20;;
52530;SDS011;38441;52.894;6.040;2022-09-12T05:11:09;25.75;;;20.67;;
52530;SDS011;38441;52.894;6.040;2022-09-12T05:13:37;27.10;;;21.02;;
52530;SDS011;38441;52.894;6.040;2022-09-12T05:16:03;29.50;;;22.25;;
52530;SDS011;38441;52.894;6.040;2022-09-12T05:18:33;30.55;;;22.58;;
52530;SDS011;38441;52.894;6.040;2022-09-12T05:21:00;25.65;;;21.05;;
52530;SDS011;38441;52.894;6.040;2022-09-12T05:23:28;27.52;;;22.15;;
52530;SDS011;38441;52.894;6.040;2022-09-12T05:25:55;26.60;;;22.48;;
52530;SDS011;38441;52.894;6.040;2022-09-12T05:28:22;28.05;;;21.40;;
52530;SDS011;38441;52.894;6.040;2022-09-12T05:31:02;25.17;;;20.65;;
52530;SDS011;38441;52.894;6.040;2022-09-12T05:33:32;27.87;;;21.77;;
52530;SDS011;38441;52.894;6.040;2022-09-12T05:35:59;31.70;;;21.83;;
52530;SDS011;38441;52.894;6.040;2022-09-12T05:38:25;30.45;;;22.13;;
52530;SDS011;38441;52.894;6.040;2022-09-12T05:40:53;29.23;;;22.58;;
52530;SDS011;38441;52.894;6.040;2022-09-12T05:43:34;30.92;;;21.80;;
52530;SDS011;38441;52.894;6.040;2022-09-12T05:46:02;31.55;;;22.52;;
52530;SDS011;38441;52.894;6.040;2022-09-12T05:48:29;28.42;;;22.00;;
52530;SDS011;38441;52.894;6.040;2022-09-12T05:51:03;28.10;;;22.00;;
52530;SDS011;38441;52.894;6.040;2022-09-12T05:53:33;28.95;;;22.88;;
52530;SDS011;38441;52.894;6.040;2022-09-12T05:56:07;28.23;;;22.23;;
52530;SDS011;38441;52.894;6.040;2022-09-12T05:58:35;28.85;;;22.67;;
52530;SDS011;38441;52.894;6.040;2022-09-12T06:01:06;31.00;;;24.48;;
52530;SDS011;38441;52.894;6.040;2022-09-12T06:03:33;32.80;;;25.00;;
52530;SDS011;38441;52.894;6.040;2022-09-12T12:40:08;6.60;;;4.13;;
52530;SDS011;38441;52.894;6.040;2022-09-12T12:47:56;7.25;;;5.38;;
52530;SDS011;38441;52.894;6.040;2022-09-12T12:50:32;8.17;;;5.10;;
52530;SDS011;38441;52.894;6.040;2022-09-12T12:53:00;7.88;;;4.50;;
52530;SDS011;38441;52.894;6.040;2022-09-12T12:55:35;6.82;;;4.68;;
52530;SDS011;38441;52.894;6.040;2022-09-12T13:01:02;7.28;;;4.03;;
52530;SDS011;38441;52.894;6.040;2022-09-12T13:03:29;7.72;;;5.03;;
52530;SDS011;38441;52.894;6.040;2022-09-12T13:05:59;7.47;;;4.80;;
52530;SDS011;38441;52.894;6.040;2022-09-12T13:11:31;8.75;;;5.18;;
52530;SDS011;38441;52.894;6.040;2022-09-12T13:14:00;8.25;;;5.00;;
52530;SDS011;38441;52.894;6.040;2022-09-12T13:16:28;6.25;;;3.78;;
52530;SDS011;38441;52.894;6.040;2022-09-12T13:19:14;6.35;;;4.50;;
52530;SDS011;38441;52.894;6.040;2022-09-12T13:21:58;11.63;;;4.88;;
52530;SDS011;38441;52.894;6.040;2022-09-12T13:24:25;7.80;;;4.30;;
52530;SDS011;38441;52.894;6.040;2022-09-12T13:26:51;16.42;;;4.72;;
52530;SDS011;38441;52.894;6.040;2022-09-12T13:31:44;6.32;;;3.70;;
52530;SDS011;38441;52.894;6.040;2022-09-12T13:34:18;6.05;;;4.15;;
52530;SDS011;38441;52.894;6.040;2022-09-12T13:42:46;8.07;;;3.67;;
52530;SDS011;38441;52.894;6.040;2022-09-12T13:45:20;5.50;;;3.83;;
52530;SDS011;38441;52.894;6.040;2022-09-12T13:48:23;5.85;;;3.47;;
52530;SDS011;38441;52.894;6.040;2022-09-12T13:50:50;7.28;;;4.25;;
52530;SDS011;38441;52.894;6.040;2022-09-12T15:17:04;9.27;;;4.50;;
52530;SDS011;38441;52.894;6.040;2022-09-12T15:19:30;9.10;;;4.00;;
52530;SDS011;38441;52.894;6.040;2022-09-12T15:21:56;7.38;;;4.25;;
52530;SDS011;38441;52.894;6.040;2022-09-12T15:24:25;6.97;;;3.95;;
52530;SDS011;38441;52.894;6.040;2022-09-12T15:26:50;5.05;;;3.42;;
52530;SDS011;38441;52.894;6.040;2022-09-12T15:29:17;8.45;;;4.28;;
52530;SDS011;38441;52.894;6.040;2022-09-12T15:31:44;6.43;;;4.07;;
52530;SDS011;38441;52.894;6.040;2022-09-12T15:34:11;9.38;;;3.70;;
52530;SDS011;38441;52.894;6.040;2022-09-12T15:36:37;9.15;;;4.18;;
52530;SDS011;38441;52.894;6.040;2022-09-12T15:39:03;10.05;;;4.85;;
52530;SDS011;38441;52.894;6.040;2022-09-12T15:41:30;10.50;;;5.45;;
52530;SDS011;38441;52.894;6.040;2022-09-12T15:43:59;10.68;;;5.90;;
52530;SDS011;38441;52.894;6.040;2022-09-12T15:46:28;11.48;;;6.32;;
52530;SDS011;38441;52.894;6.040;2022-09-12T15:48:54;15.02;;;8.18;;
52530;SDS011;38441;52.894;6.040;2022-09-12T15:51:20;15.05;;;7.93;;
52530;SDS011;38441;52.894;6.040;2022-09-12T15:53:46;18.63;;;7.95;;
52530;SDS011;38441;52.894;6.040;2022-09-12T15:56:16;17.30;;;9.05;;
52530;SDS011;38441;52.894;6.040;2022-09-12T15:58:44;16.38;;;8.73;;
52530;SDS011;38441;52.894;6.040;2022-09-12T16:01:13;16.63;;;8.48;;
52530;SDS011;38441;52.894;6.040;2022-09-12T16:03:42;14.15;;;7.65;;
52530;SDS011;38441;52.894;6.040;2022-09-12T16:06:26;13.13;;;7.55;;
52530;SDS011;38441;52.894;6.040;2022-09-12T16:08:58;12.70;;;7.15;;
52530;SDS011;38441;52.894;6.040;2022-09-12T16:11:25;13.52;;;7.35;;
52530;SDS011;38441;52.894;6.040;2022-09-12T16:13:57;11.23;;;7.20;;
52530;SDS011;38441;52.894;6.040;2022-09-12T16:16:23;9.85;;;6.55;;
52530;SDS011;38441;52.894;6.040;2022-09-12T16:18:49;12.80;;;6.75;;
52530;SDS011;38441;52.894;6.040;2022-09-12T16:21:16;8.93;;;5.75;;
52530;SDS011;38441;52.894;6.040;2022-09-12T16:23:47;10.80;;;5.80;;
52530;SDS011;38441;52.894;6.040;2022-09-12T16:26:20;14.48;;;6.47;;
52530;SDS011;38441;52.894;6.040;2022-09-12T16:28:47;10.90;;;6.07;;
52530;SDS011;38441;52.894;6.040;2022-09-12T16:31:24;10.95;;;5.43;;
52530;SDS011;38441;52.894;6.040;2022-09-12T16:33:53;12.02;;;6.20;;
52530;SDS011;38441;52.894;6.040;2022-09-12T16:36:22;15.70;;;6.65;;
52530;SDS011;38441;52.894;6.040;2022-09-12T16:38:50;10.40;;;5.85;;
52530;SDS011;38441;52.894;6.040;2022-09-12T16:41:23;13.93;;;5.85;;
52530;SDS011;38441;52.894;6.040;2022-09-12T16:43:58;6.32;;;4.45;;
52530;SDS011;38441;52.894;6.040;2022-09-12T16:46:46;6.28;;;4.35;;
52530;SDS011;38441;52.894;6.040;2022-09-12T16:49:17;9.02;;;4.45;;
52530;SDS011;38441;52.894;6.040;2022-09-12T19:34:10;26.38;;;14.18;;
52530;SDS011;38441;52.894;6.040;2022-09-12T19:36:37;23.80;;;14.75;;
52530;SDS011;38441;52.894;6.040;2022-09-12T19:39:04;22.25;;;13.05;;
52530;SDS011;38441;52.894;6.040;2022-09-12T19:41:31;21.10;;;12.85;;
52530;SDS011;38441;52.894;6.040;2022-09-12T19:43:57;23.02;;;12.15;;
52530;SDS011;38441;52.894;6.040;2022-09-12T19:46:23;19.00;;;11.48;;
52530;SDS011;38441;52.894;6.040;2022-09-12T19:48:49;18.98;;;12.00;;
52530;SDS011;38441;52.894;6.040;2022-09-12T19:51:17;21.20;;;12.63;;
52530;SDS011;38441;52.894;6.040;2022-09-12T19:53:43;19.75;;;12.07;;
52530;SDS011;38441;52.894;6.040;2022-09-12T19:56:09;19.67;;;12.77;;
52530;SDS011;38441;52.894;6.040;2022-09-12T19:58:38;24.58;;;14.23;;
52530;SDS011;38441;52.894;6.040;2022-09-12T20:01:10;24.92;;;15.68;;
52530;SDS011;38441;52.894;6.040;2022-09-12T20:03:38;25.05;;;14.50;;
52530;SDS011;38441;52.894;6.040;2022-09-12T20:06:04;25.33;;;14.18;;
52530;SDS011;38441;52.894;6.040;2022-09-12T20:08:32;24.77;;;14.80;;
52530;SDS011;38441;52.894;6.040;2022-09-12T20:10:58;29.70;;;17.55;;
52530;SDS011;38441;52.894;6.040;2022-09-12T20:13:26;32.30;;;19.10;;
52530;SDS011;38441;52.894;6.040;2022-09-12T20:15:51;49.38;;;27.13;;
52530;SDS011;38441;52.894;6.040;2022-09-12T20:18:17;64.82;;;35.65;;
52530;SDS011;38441;52.894;6.040;2022-09-12T20:20:43;63.45;;;34.28;;
52530;SDS011;38441;52.894;6.040;2022-09-12T20:23:10;55.92;;;30.90;;
52530;SDS011;38441;52.894;6.040;2022-09-12T20:25:36;60.95;;;33.60;;
52530;SDS011;38441;52.894;6.040;2022-09-12T20:28:02;60.20;;;31.85;;
52530;SDS011;38441;52.894;6.040;2022-09-12T20:30:27;60.00;;;33.63;;
52530;SDS011;38441;52.894;6.040;2022-09-12T20:32:53;60.65;;;33.05;;
52530;SDS011;38441;52.894;6.040;2022-09-12T20:35:19;59.25;;;33.85;;
52530;SDS011;38441;52.894;6.040;2022-09-12T20:37:44;63.03;;;33.30;;
52530;SDS011;38441;52.894;6.040;2022-09-12T20:40:10;57.22;;;32.58;;
52530;SDS011;38441;52.894;6.040;2022-09-12T20:42:36;54.63;;;32.58;;
52530;SDS011;38441;52.894;6.040;2022-09-12T20:45:02;62.28;;;31.38;;
52530;SDS011;38441;52.894;6.040;2022-09-12T20:47:28;60.10;;;32.20;;
52530;SDS011;38441;52.894;6.040;2022-09-12T20:49:54;52.47;;;29.95;;
52530;SDS011;38441;52.894;6.040;2022-09-12T20:52:19;54.53;;;31.60;;
52530;SDS011;38441;52.894;6.040;2022-09-12T20:54:45;51.55;;;30.95;;
52530;SDS011;38441;52.894;6.040;2022-09-12T20:57:11;51.85;;;29.73;;
52530;SDS011;38441;52.894;6.040;2022-09-12T20:59:36;54.40;;;29.83;;
52530;SDS011;38441;52.894;6.040;2022-09-12T21:02:07;57.83;;;30.00;;
52530;SDS011;38441;52.894;6.040;2022-09-12T21:04:34;51.50;;;30.23;;
52530;SDS011;38441;52.894;6.040;2022-09-12T21:06:59;41.17;;;26.42;;
52530;SDS011;38441;52.894;6.040;2022-09-12T21:09:25;46.15;;;27.00;;
52530;SDS011;38441;52.894;6.040;2022-09-12T21:11:51;50.35;;;29.70;;
52530;SDS011;38441;52.894;6.040;2022-09-12T21:14:16;50.55;;;29.05;;
52530;SDS011;38441;52.894;6.040;2022-09-12T21:16:42;49.20;;;29.30;;
52530;SDS011;38441;52.894;6.040;2022-09-12T21:19:07;51.88;;;29.55;;
52530;SDS011;38441;52.894;6.040;2022-09-12T21:21:33;50.78;;;30.13;;
52530;SDS011;38441;52.894;6.040;2022-09-12T21:23:59;48.08;;;27.23;;
52530;SDS011;38441;52.894;6.040;2022-09-12T21:26:29;48.88;;;29.05;;
52530;SDS011;38441;52.894;6.040;2022-09-12T21:28:55;50.97;;;30.48;;
52530;SDS011;38441;52.894;6.040;2022-09-12T21:31:21;52.10;;;29.02;;
52530;SDS011;38441;52.894;6.040;2022-09-12T21:33:47;47.40;;;28.98;;
52530;SDS011;38441;52.894;6.040;2022-09-12T21:36:13;47.95;;;29.20;;
52530;SDS011;38441;52.894;6.040;2022-09-12T21:38:38;49.88;;;29.25;;
52530;SDS011;38441;52.894;6.040;2022-09-12T21:41:05;52.00;;;31.15;;
52530;SDS011;38441;52.894;6.040;2022-09-12T21:43:35;48.28;;;28.95;;
52530;SDS011;38441;52.894;6.040;2022-09-12T21:46:02;47.03;;;28.15;;
52530;SDS011;38441;52.894;6.040;2022-09-12T21:48:29;47.38;;;29.35;;
52530;SDS011;38441;52.894;6.040;2022-09-12T21:50:54;48.40;;;28.38;;
52530;SDS011;38441;52.894;6.040;2022-09-12T21:53:20;47.33;;;29.00;;
52530;SDS011;38441;52.894;6.040;2022-09-12T21:55:46;48.95;;;27.77;;
52530;SDS011;38441;52.894;6.040;2022-09-12T21:58:12;48.42;;;28.10;;
52530;SDS011;38441;52.894;6.040;2022-09-12T22:00:39;50.28;;;29.58;;
52530;SDS011;38441;52.894;6.040;2022-09-12T22:03:05;48.42;;;30.60;;
52530;SDS011;38441;52.894;6.040;2022-09-12T22:05:31;52.17;;;29.00;;
52530;SDS011;38441;52.894;6.040;2022-09-12T22:07:57;47.10;;;28.60;;
52530;SDS011;38441;52.894;6.040;2022-09-12T22:10:24;44.88;;;28.58;;
52530;SDS011;38441;52.894;6.040;2022-09-12T22:12:50;45.45;;;28.02;;
52530;SDS011;38441;52.894;6.040;2022-09-12T22:15:16;44.45;;;27.27;;
52530;SDS011;38441;52.894;6.040;2022-09-12T22:17:43;43.85;;;27.20;;
52530;SDS011;38441;52.894;6.040;2022-09-12T22:20:08;43.00;;;26.33;;
52530;SDS011;38441;52.894;6.040;2022-09-12T22:22:36;44.13;;;27.25;;
52530;SDS011;38441;52.894;6.040;2022-09-12T22:25:20;44.25;;;27.02;;
52530;SDS011;38441;52.894;6.040;2022-09-12T22:27:51;42.28;;;27.15;;
52530;SDS011;38441;52.894;6.040;2022-09-12T22:30:18;42.55;;;27.75;;
52530;SDS011;38441;52.894;6.040;2022-09-12T22:32:48;43.70;;;27.25;;
52530;SDS011;38441;52.894;6.040;2022-09-12T22:35:15;41.38;;;26.75;;
52530;SDS011;38441;52.894;6.040;2022-09-12T22:37:41;41.38;;;26.70;;
52530;SDS011;38441;52.894;6.040;2022-09-12T22:40:07;48.45;;;27.20;;
52530;SDS011;38441;52.894;6.040;2022-09-12T22:42:36;43.70;;;27.48;;
52530;SDS011;38441;52.894;6.040;2022-09-12T22:45:03;44.30;;;28.08;;
52530;SDS011;38441;52.894;6.040;2022-09-12T22:47:30;45.03;;;27.95;;
52530;SDS011;38441;52.894;6.040;2022-09-12T22:49:56;40.22;;;24.45;;
52530;SDS011;38441;52.894;6.040;2022-09-12T22:52:21;38.15;;;25.23;;
52530;SDS011;38441;52.894;6.040;2022-09-12T22:54:48;36.35;;;25.83;;
52530;SDS011;38441;52.894;6.040;2022-09-12T22:57:14;39.53;;;25.88;;
52530;SDS011;38441;52.894;6.040;2022-09-12T22:59:40;34.90;;;24.65;;
52530;SDS011;38441;52.894;6.040;2022-09-12T23:02:05;37.30;;;23.40;;
52530;SDS011;38441;52.894;6.040;2022-09-12T23:04:31;24.70;;;17.23;;
52530;SDS011;38441;52.894;6.040;2022-09-12T23:06:58;23.08;;;16.35;;
52530;SDS011;38441;52.894;6.040;2022-09-12T23:09:23;24.52;;;16.40;;
52530;SDS011;38441;52.894;6.040;2022-09-12T23:11:49;23.95;;;16.17;;
52530;SDS011;38441;52.894;6.040;2022-09-12T23:14:16;22.98;;;16.85;;
52530;SDS011;38441;52.894;6.040;2022-09-12T23:16:42;21.50;;;15.80;;
52530;SDS011;38441;52.894;6.040;2022-09-12T23:19:07;21.08;;;15.50;;
52530;SDS011;38441;52.894;6.040;2022-09-12T23:21:33;19.65;;;15.40;;
52530;SDS011;38441;52.894;6.040;2022-09-12T23:23:58;19.63;;;15.95;;
52530;SDS011;38441;52.894;6.040;2022-09-12T23:26:25;19.98;;;15.00;;
52530;SDS011;38441;52.894;6.040;2022-09-12T23:29:02;18.90;;;15.95;;
52530;SDS011;38441;52.894;6.040;2022-09-12T23:31:30;18.48;;;15.70;;
52530;SDS011;38441;52.894;6.040;2022-09-12T23:33:58;19.90;;;16.65;;
52530;SDS011;38441;52.894;6.040;2022-09-12T23:36:28;26.42;;;18.77;;
52530;SDS011;38441;52.894;6.040;2022-09-12T23:38:54;22.15;;;18.45;;
52530;SDS011;38441;52.894;6.040;2022-09-12T23:41:20;22.65;;;17.45;;
52530;SDS011;38441;52.894;6.040;2022-09-12T23:43:46;21.83;;;17.88;;
52530;SDS011;38441;52.894;6.040;2022-09-12T23:46:12;21.98;;;18.33;;
52530;SDS011;38441;52.894;6.040;2022-09-12T23:48:39;21.63;;;17.13;;
52530;SDS011;38441;52.894;6.040;2022-09-12T23:51:04;20.60;;;16.10;;
52530;SDS011;38441;52.894;6.040;2022-09-12T23:53:30;19.88;;;16.45;;
52530;SDS011;38441;52.894;6.040;2022-09-12T23:55:56;19.58;;;16.70;;
52530;SDS011;38441;52.894;6.040;2022-09-12T23:58:23;21.48;;;16.10;;
